sensor_id;sensor_type;location;lat;lon;timestamp;temperature;humidity
16485;DHT22;8353;47.856;12.344;2023-12-29T00:02:00;9.90;99.90
16485;DHT22;8353;47.856;12.344;2023-12-29T00:04:47;9.90;99.90
16485;DHT22;8353;47.856;12.344;2023-12-29T00:07:33;9.90;99.90
16485;DHT22;8353;47.856;12.344;2023-12-29T00:10:20;9.80;99.90
16485;DHT22;8353;47.856;12.344;2023-12-29T00:13:08;9.90;99.90
16485;DHT22;8353;47.856;12.344;2023-12-29T00:15:55;9.90;99.90
16485;DHT22;8353;47.856;12.344;2023-12-29T00:18:42;9.90;99.90
16485;DHT22;8353;47.856;12.344;2023-12-29T00:21:31;9.90;99.90
16485;DHT22;8353;47.856;12.344;2023-12-29T00:24:20;9.80;99.90
16485;DHT22;8353;47.856;12.344;2023-12-29T00:27:11;9.70;99.90
16485;DHT22;8353;47.856;12.344;2023-12-29T00:29:59;9.70;99.90
16485;DHT22;8353;47.856;12.344;2023-12-29T00:32:46;9.70;99.90
16485;DHT22;8353;47.856;12.344;2023-12-29T00:35:36;9.70;99.90
16485;DHT22;8353;47.856;12.344;2023-12-29T00:38:23;9.60;99.90
16485;DHT22;8353;47.856;12.344;2023-12-29T00:41:10;9.50;99.90
16485;DHT22;8353;47.856;12.344;2023-12-29T00:43:56;9.60;99.90
16485;DHT22;8353;47.856;12.344;2023-12-29T00:46:44;9.70;99.90
16485;DHT22;8353;47.856;12.344;2023-12-29T00:49:31;9.70;99.90
16485;DHT22;8353;47.856;12.344;2023-12-29T00:52:18;9.80;99.90
16485;DHT22;8353;47.856;12.344;2023-12-29T00:55:05;10.00;99.90
16485;DHT22;8353;47.856;12.344;2023-12-29T00:57:52;10.10;99.90
16485;DHT22;8353;47.856;12.344;2023-12-29T01:00:39;10.10;99.90
16485;DHT22;8353;47.856;12.344;2023-12-29T01:03:27;10.10;99.90
16485;DHT22;8353;47.856;12.344;2023-12-29T01:06:14;10.10;99.90
16485;DHT22;8353;47.856;12.344;2023-12-29T01:09:01;10.10;99.90
16485;DHT22;8353;47.856;12.344;2023-12-29T01:11:48;10.20;99.90
16485;DHT22;8353;47.856;12.344;2023-12-29T01:14:35;10.10;99.90
16485;DHT22;8353;47.856;12.344;2023-12-29T01:17:21;10.10;99.90
16485;DHT22;8353;47.856;12.344;2023-12-29T01:20:10;10.20;99.90
16485;DHT22;8353;47.856;12.344;2023-12-29T01:22:57;10.20;99.90
16485;DHT22;8353;47.856;12.344;2023-12-29T01:25:43;10.20;99.90
16485;DHT22;8353;47.856;12.344;2023-12-29T01:28:30;10.20;99.90
16485;DHT22;8353;47.856;12.344;2023-12-29T01:31:17;10.20;99.90
16485;DHT22;8353;47.856;12.344;2023-12-29T01:34:04;10.20;99.90
16485;DHT22;8353;47.856;12.344;2023-12-29T01:36:52;10.30;99.90
16485;DHT22;8353;47.856;12.344;2023-12-29T01:39:39;10.20;99.90
16485;DHT22;8353;47.856;12.344;2023-12-29T01:42:26;10.20;99.90
16485;DHT22;8353;47.856;12.344;2023-12-29T01:45:20;10.20;99.90
16485;DHT22;8353;47.856;12.344;2023-12-29T01:48:09;10.10;99.90
16485;DHT22;8353;47.856;12.344;2023-12-29T01:50:55;10.10;99.90
16485;DHT22;8353;47.856;12.344;2023-12-29T01:53:44;9.90;99.90
16485;DHT22;8353;47.856;12.344;2023-12-29T01:56:31;9.80;99.90
16485;DHT22;8353;47.856;12.344;2023-12-29T01:59:18;9.80;99.90
16485;DHT22;8353;47.856;12.344;2023-12-29T02:02:05;9.70;99.90
16485;DHT22;8353;47.856;12.344;2023-12-29T02:04:52;9.60;99.90
16485;DHT22;8353;47.856;12.344;2023-12-29T02:07:40;9.60;99.90
16485;DHT22;8353;47.856;12.344;2023-12-29T02:10:28;9.50;99.90
16485;DHT22;8353;47.856;12.344;2023-12-29T02:13:15;9.50;99.90
16485;DHT22;8353;47.856;12.344;2023-12-29T02:16:05;9.50;99.90
16485;DHT22;8353;47.856;12.344;2023-12-29T02:18:55;9.50;99.90
16485;DHT22;8353;47.856;12.344;2023-12-29T02:21:43;9.40;99.90
16485;DHT22;8353;47.856;12.344;2023-12-29T02:24:33;9.40;99.90
16485;DHT22;8353;47.856;12.344;2023-12-29T02:27:29;9.40;99.90
16485;DHT22;8353;47.856;12.344;2023-12-29T02:30:24;9.50;99.90
16485;DHT22;8353;47.856;12.344;2023-12-29T02:33:16;9.50;99.90
16485;DHT22;8353;47.856;12.344;2023-12-29T02:36:06;9.40;99.90
16485;DHT22;8353;47.856;12.344;2023-12-29T02:38:53;9.60;99.90
16485;DHT22;8353;47.856;12.344;2023-12-29T02:41:40;9.50;99.90
16485;DHT22;8353;47.856;12.344;2023-12-29T02:44:28;9.60;99.90
16485;DHT22;8353;47.856;12.344;2023-12-29T02:47:15;9.50;99.90
16485;DHT22;8353;47.856;12.344;2023-12-29T02:50:03;9.50;99.90
16485;DHT22;8353;47.856;12.344;2023-12-29T02:52:49;9.50;99.90
16485;DHT22;8353;47.856;12.344;2023-12-29T02:55:36;9.40;99.90
16485;DHT22;8353;47.856;12.344;2023-12-29T02:58:23;9.40;99.90
16485;DHT22;8353;47.856;12.344;2023-12-29T03:01:11;9.30;99.90
16485;DHT22;8353;47.856;12.344;2023-12-29T03:03:58;9.30;99.90
16485;DHT22;8353;47.856;12.344;2023-12-29T03:06:44;9.30;99.90
16485;DHT22;8353;47.856;12.344;2023-12-29T03:09:31;9.30;99.90
16485;DHT22;8353;47.856;12.344;2023-12-29T03:12:18;9.30;99.90
16485;DHT22;8353;47.856;12.344;2023-12-29T03:15:05;9.30;99.90
16485;DHT22;8353;47.856;12.344;2023-12-29T03:17:53;9.40;99.90
16485;DHT22;8353;47.856;12.344;2023-12-29T03:20:40;9.40;99.90
16485;DHT22;8353;47.856;12.344;2023-12-29T03:23:27;9.30;99.90
16485;DHT22;8353;47.856;12.344;2023-12-29T03:26:14;9.30;99.90
16485;DHT22;8353;47.856;12.344;2023-12-29T03:29:00;9.30;99.90
16485;DHT22;8353;47.856;12.344;2023-12-29T03:31:47;9.30;99.90
16485;DHT22;8353;47.856;12.344;2023-12-29T03:34:35;9.30;99.90
16485;DHT22;8353;47.856;12.344;2023-12-29T03:37:22;9.30;99.90
16485;DHT22;8353;47.856;12.344;2023-12-29T03:40:09;9.40;99.90
16485;DHT22;8353;47.856;12.344;2023-12-29T03:42:56;9.40;99.90
16485;DHT22;8353;47.856;12.344;2023-12-29T03:45:43;9.40;99.90
16485;DHT22;8353;47.856;12.344;2023-12-29T03:48:29;9.40;99.90
16485;DHT22;8353;47.856;12.344;2023-12-29T03:51:19;9.40;99.90
16485;DHT22;8353;47.856;12.344;2023-12-29T03:54:06;9.30;99.90
16485;DHT22;8353;47.856;12.344;2023-12-29T03:56:53;9.20;99.90
16485;DHT22;8353;47.856;12.344;2023-12-29T03:59:40;9.10;99.90
16485;DHT22;8353;47.856;12.344;2023-12-29T04:02:26;8.90;99.90
16485;DHT22;8353;47.856;12.344;2023-12-29T04:05:13;8.80;99.90
16485;DHT22;8353;47.856;12.344;2023-12-29T04:08:01;8.50;99.90
16485;DHT22;8353;47.856;12.344;2023-12-29T04:10:48;8.50;99.90
16485;DHT22;8353;47.856;12.344;2023-12-29T04:13:35;8.60;99.90
16485;DHT22;8353;47.856;12.344;2023-12-29T04:16:21;8.60;99.90
16485;DHT22;8353;47.856;12.344;2023-12-29T04:19:08;8.70;99.90
16485;DHT22;8353;47.856;12.344;2023-12-29T04:21:59;8.50;99.90
16485;DHT22;8353;47.856;12.344;2023-12-29T04:24:47;8.60;99.90
16485;DHT22;8353;47.856;12.344;2023-12-29T04:27:34;8.80;99.90
16485;DHT22;8353;47.856;12.344;2023-12-29T04:30:20;9.00;99.90
16485;DHT22;8353;47.856;12.344;2023-12-29T04:33:07;9.10;99.90
16485;DHT22;8353;47.856;12.344;2023-12-29T04:35:54;9.20;99.90
16485;DHT22;8353;47.856;12.344;2023-12-29T04:38:40;9.40;99.90
16485;DHT22;8353;47.856;12.344;2023-12-29T04:41:28;9.40;99.90
16485;DHT22;8353;47.856;12.344;2023-12-29T04:44:15;9.40;99.90
16485;DHT22;8353;47.856;12.344;2023-12-29T04:47:02;9.40;99.90
16485;DHT22;8353;47.856;12.344;2023-12-29T04:49:49;9.40;99.90
16485;DHT22;8353;47.856;12.344;2023-12-29T04:52:36;9.50;99.90
16485;DHT22;8353;47.856;12.344;2023-12-29T04:55:22;9.50;99.90
16485;DHT22;8353;47.856;12.344;2023-12-29T04:58:10;9.50;99.90
16485;DHT22;8353;47.856;12.344;2023-12-29T05:00:57;9.50;99.90
16485;DHT22;8353;47.856;12.344;2023-12-29T05:03:44;9.50;99.90
16485;DHT22;8353;47.856;12.344;2023-12-29T05:06:31;9.50;99.90
16485;DHT22;8353;47.856;12.344;2023-12-29T05:09:18;9.60;99.90
16485;DHT22;8353;47.856;12.344;2023-12-29T05:12:05;9.70;99.90
16485;DHT22;8353;47.856;12.344;2023-12-29T05:14:53;9.80;99.90
16485;DHT22;8353;47.856;12.344;2023-12-29T05:17:40;9.90;99.90
16485;DHT22;8353;47.856;12.344;2023-12-29T05:20:26;9.90;99.90
16485;DHT22;8353;47.856;12.344;2023-12-29T05:23:13;9.90;99.90
16485;DHT22;8353;47.856;12.344;2023-12-29T05:26:00;9.90;99.90
16485;DHT22;8353;47.856;12.344;2023-12-29T05:28:46;9.90;99.90
16485;DHT22;8353;47.856;12.344;2023-12-29T05:31:35;9.90;99.90
16485;DHT22;8353;47.856;12.344;2023-12-29T05:34:21;9.80;99.90
16485;DHT22;8353;47.856;12.344;2023-12-29T05:37:08;9.80;99.90
16485;DHT22;8353;47.856;12.344;2023-12-29T05:39:55;9.80;99.90
16485;DHT22;8353;47.856;12.344;2023-12-29T05:42:41;9.80;99.90
16485;DHT22;8353;47.856;12.344;2023-12-29T05:45:28;9.90;99.90
16485;DHT22;8353;47.856;12.344;2023-12-29T05:48:16;10.00;99.90
16485;DHT22;8353;47.856;12.344;2023-12-29T05:51:07;9.90;99.90
16485;DHT22;8353;47.856;12.344;2023-12-29T05:53:54;9.60;99.90
16485;DHT22;8353;47.856;12.344;2023-12-29T05:56:41;9.50;99.90
16485;DHT22;8353;47.856;12.344;2023-12-29T05:59:27;9.50;99.90
16485;DHT22;8353;47.856;12.344;2023-12-29T06:02:14;9.40;99.90
16485;DHT22;8353;47.856;12.344;2023-12-29T06:05:02;9.50;99.90
16485;DHT22;8353;47.856;12.344;2023-12-29T06:07:49;9.40;99.90
16485;DHT22;8353;47.856;12.344;2023-12-29T06:10:36;9.50;99.90
16485;DHT22;8353;47.856;12.344;2023-12-29T06:13:23;9.50;99.90
16485;DHT22;8353;47.856;12.344;2023-12-29T06:16:09;9.50;99.90
16485;DHT22;8353;47.856;12.344;2023-12-29T06:18:56;9.50;99.90
16485;DHT22;8353;47.856;12.344;2023-12-29T06:21:44;9.50;99.90
16485;DHT22;8353;47.856;12.344;2023-12-29T06:24:33;9.50;99.90
16485;DHT22;8353;47.856;12.344;2023-12-29T06:27:20;9.50;99.90
16485;DHT22;8353;47.856;12.344;2023-12-29T06:30:07;9.60;99.90
16485;DHT22;8353;47.856;12.344;2023-12-29T06:32:56;9.60;99.90
16485;DHT22;8353;47.856;12.344;2023-12-29T06:35:43;9.60;99.90
16485;DHT22;8353;47.856;12.344;2023-12-29T06:38:31;9.70;99.90
16485;DHT22;8353;47.856;12.344;2023-12-29T06:41:19;9.70;99.90
16485;DHT22;8353;47.856;12.344;2023-12-29T06:44:06;9.60;99.90
16485;DHT22;8353;47.856;12.344;2023-12-29T06:46:52;9.60;99.90
16485;DHT22;8353;47.856;12.344;2023-12-29T06:49:39;9.60;99.90
16485;DHT22;8353;47.856;12.344;2023-12-29T06:52:26;9.60;99.90
16485;DHT22;8353;47.856;12.344;2023-12-29T06:55:17;9.60;99.90
16485;DHT22;8353;47.856;12.344;2023-12-29T06:58:04;9.60;99.90
16485;DHT22;8353;47.856;12.344;2023-12-29T07:00:51;9.70;99.90
16485;DHT22;8353;47.856;12.344;2023-12-29T07:03:38;9.70;99.90
16485;DHT22;8353;47.856;12.344;2023-12-29T07:06:25;9.80;99.90
16485;DHT22;8353;47.856;12.344;2023-12-29T07:09:11;9.80;99.90
16485;DHT22;8353;47.856;12.344;2023-12-29T07:11:59;9.80;99.90
16485;DHT22;8353;47.856;12.344;2023-12-29T07:14:46;9.80;99.90
16485;DHT22;8353;47.856;12.344;2023-12-29T07:17:33;9.80;99.90
16485;DHT22;8353;47.856;12.344;2023-12-29T07:20:20;9.90;99.90
16485;DHT22;8353;47.856;12.344;2023-12-29T07:23:07;9.90;99.90
16485;DHT22;8353;47.856;12.344;2023-12-29T07:25:53;9.90;99.90
16485;DHT22;8353;47.856;12.344;2023-12-29T07:28:42;9.90;99.90
16485;DHT22;8353;47.856;12.344;2023-12-29T07:31:29;10.00;99.90
16485;DHT22;8353;47.856;12.344;2023-12-29T07:34:15;10.10;99.90
16485;DHT22;8353;47.856;12.344;2023-12-29T07:37:02;10.10;99.90
16485;DHT22;8353;47.856;12.344;2023-12-29T07:39:49;10.10;99.90
16485;DHT22;8353;47.856;12.344;2023-12-29T07:42:36;10.10;99.90
16485;DHT22;8353;47.856;12.344;2023-12-29T07:45:24;10.10;99.90
16485;DHT22;8353;47.856;12.344;2023-12-29T07:48:11;10.10;99.90
16485;DHT22;8353;47.856;12.344;2023-12-29T07:51:05;10.10;99.90
16485;DHT22;8353;47.856;12.344;2023-12-29T07:53:51;10.00;99.90
16485;DHT22;8353;47.856;12.344;2023-12-29T07:56:38;10.00;99.90
16485;DHT22;8353;47.856;12.344;2023-12-29T07:59:25;10.00;99.90
16485;DHT22;8353;47.856;12.344;2023-12-29T08:02:13;10.10;99.90
16485;DHT22;8353;47.856;12.344;2023-12-29T08:05:00;10.20;99.90
16485;DHT22;8353;47.856;12.344;2023-12-29T08:07:47;10.20;99.90
16485;DHT22;8353;47.856;12.344;2023-12-29T08:10:33;10.20;99.90
16485;DHT22;8353;47.856;12.344;2023-12-29T08:13:20;10.30;99.90
16485;DHT22;8353;47.856;12.344;2023-12-29T08:16:07;10.40;99.90
16485;DHT22;8353;47.856;12.344;2023-12-29T08:18:55;10.40;99.90
16485;DHT22;8353;47.856;12.344;2023-12-29T08:21:43;10.50;99.90
16485;DHT22;8353;47.856;12.344;2023-12-29T08:24:29;10.50;99.90
16485;DHT22;8353;47.856;12.344;2023-12-29T08:27:22;10.60;99.90
16485;DHT22;8353;47.856;12.344;2023-12-29T08:30:10;10.60;99.90
16485;DHT22;8353;47.856;12.344;2023-12-29T08:32:57;10.70;99.90
16485;DHT22;8353;47.856;12.344;2023-12-29T08:35:45;10.70;99.90
16485;DHT22;8353;47.856;12.344;2023-12-29T08:38:32;10.80;99.90
16485;DHT22;8353;47.856;12.344;2023-12-29T08:41:19;10.90;99.90
16485;DHT22;8353;47.856;12.344;2023-12-29T08:44:05;11.10;99.90
16485;DHT22;8353;47.856;12.344;2023-12-29T08:46:52;11.00;99.90
16485;DHT22;8353;47.856;12.344;2023-12-29T08:49:39;11.10;99.90
16485;DHT22;8353;47.856;12.344;2023-12-29T08:52:28;11.20;99.90
16485;DHT22;8353;47.856;12.344;2023-12-29T08:55:14;11.20;99.90
16485;DHT22;8353;47.856;12.344;2023-12-29T08:58:01;11.30;99.90
16485;DHT22;8353;47.856;12.344;2023-12-29T09:00:48;11.40;99.90
16485;DHT22;8353;47.856;12.344;2023-12-29T09:03:35;11.50;99.90
16485;DHT22;8353;47.856;12.344;2023-12-29T09:06:22;11.50;99.90
16485;DHT22;8353;47.856;12.344;2023-12-29T09:09:10;11.50;99.90
16485;DHT22;8353;47.856;12.344;2023-12-29T09:11:58;11.60;99.90
16485;DHT22;8353;47.856;12.344;2023-12-29T09:14:45;11.60;99.90
16485;DHT22;8353;47.856;12.344;2023-12-29T09:17:32;11.70;99.90
16485;DHT22;8353;47.856;12.344;2023-12-29T09:20:18;11.80;99.90
16485;DHT22;8353;47.856;12.344;2023-12-29T09:23:05;11.90;99.90
16485;DHT22;8353;47.856;12.344;2023-12-29T09:25:53;11.90;99.90
16485;DHT22;8353;47.856;12.344;2023-12-29T09:28:42;12.00;99.90
16485;DHT22;8353;47.856;12.344;2023-12-29T09:31:29;12.00;99.90
16485;DHT22;8353;47.856;12.344;2023-12-29T09:34:16;12.10;99.90
16485;DHT22;8353;47.856;12.344;2023-12-29T09:37:03;12.00;99.90
16485;DHT22;8353;47.856;12.344;2023-12-29T09:39:50;12.00;99.90
16485;DHT22;8353;47.856;12.344;2023-12-29T09:42:39;12.20;99.90
16485;DHT22;8353;47.856;12.344;2023-12-29T09:45:27;12.30;99.90
16485;DHT22;8353;47.856;12.344;2023-12-29T09:48:16;12.30;99.90
16485;DHT22;8353;47.856;12.344;2023-12-29T09:51:05;12.30;99.90
16485;DHT22;8353;47.856;12.344;2023-12-29T09:53:52;12.30;99.90
16485;DHT22;8353;47.856;12.344;2023-12-29T09:56:40;12.40;99.90
16485;DHT22;8353;47.856;12.344;2023-12-29T09:59:29;12.50;99.90
16485;DHT22;8353;47.856;12.344;2023-12-29T10:02:16;12.50;99.90
16485;DHT22;8353;47.856;12.344;2023-12-29T10:05:04;12.50;99.90
16485;DHT22;8353;47.856;12.344;2023-12-29T10:07:52;12.50;99.90
16485;DHT22;8353;47.856;12.344;2023-12-29T10:10:42;12.50;99.90
16485;DHT22;8353;47.856;12.344;2023-12-29T10:13:29;12.50;99.90
16485;DHT22;8353;47.856;12.344;2023-12-29T10:16:24;12.60;99.90
16485;DHT22;8353;47.856;12.344;2023-12-29T10:19:18;12.60;99.90
16485;DHT22;8353;47.856;12.344;2023-12-29T10:22:15;12.70;99.90
16485;DHT22;8353;47.856;12.344;2023-12-29T10:25:05;12.90;99.90
16485;DHT22;8353;47.856;12.344;2023-12-29T10:27:55;12.90;99.90
16485;DHT22;8353;47.856;12.344;2023-12-29T10:30:43;13.00;99.90
16485;DHT22;8353;47.856;12.344;2023-12-29T10:33:31;13.00;99.90
16485;DHT22;8353;47.856;12.344;2023-12-29T10:36:19;13.10;99.90
16485;DHT22;8353;47.856;12.344;2023-12-29T10:39:06;13.10;99.90
16485;DHT22;8353;47.856;12.344;2023-12-29T10:42:03;13.20;99.90
16485;DHT22;8353;47.856;12.344;2023-12-29T10:45:05;13.30;99.90
16485;DHT22;8353;47.856;12.344;2023-12-29T10:47:52;13.40;99.90
16485;DHT22;8353;47.856;12.344;2023-12-29T10:50:44;13.40;99.90
16485;DHT22;8353;47.856;12.344;2023-12-29T10:53:32;13.60;99.90
16485;DHT22;8353;47.856;12.344;2023-12-29T10:56:18;13.60;99.90
16485;DHT22;8353;47.856;12.344;2023-12-29T10:59:07;13.60;99.90
16485;DHT22;8353;47.856;12.344;2023-12-29T11:01:53;13.60;99.90
16485;DHT22;8353;47.856;12.344;2023-12-29T11:04:40;13.70;99.90
16485;DHT22;8353;47.856;12.344;2023-12-29T11:07:34;13.80;99.90
16485;DHT22;8353;47.856;12.344;2023-12-29T11:10:21;13.80;99.90
16485;DHT22;8353;47.856;12.344;2023-12-29T11:13:09;13.80;99.90
16485;DHT22;8353;47.856;12.344;2023-12-29T11:15:58;13.80;99.90
16485;DHT22;8353;47.856;12.344;2023-12-29T11:18:48;13.90;99.90
16485;DHT22;8353;47.856;12.344;2023-12-29T11:21:36;13.90;99.90
16485;DHT22;8353;47.856;12.344;2023-12-29T11:24:28;14.00;99.90
16485;DHT22;8353;47.856;12.344;2023-12-29T11:27:16;14.00;99.90
16485;DHT22;8353;47.856;12.344;2023-12-29T11:30:04;14.10;99.90
16485;DHT22;8353;47.856;12.344;2023-12-29T11:32:55;14.20;99.90
16485;DHT22;8353;47.856;12.344;2023-12-29T11:35:45;14.20;99.90
16485;DHT22;8353;47.856;12.344;2023-12-29T11:38:47;14.10;99.90
16485;DHT22;8353;47.856;12.344;2023-12-29T11:41:42;14.20;99.90
16485;DHT22;8353;47.856;12.344;2023-12-29T11:44:31;14.10;99.90
16485;DHT22;8353;47.856;12.344;2023-12-29T11:47:34;14.10;99.90
16485;DHT22;8353;47.856;12.344;2023-12-29T11:50:27;14.00;99.90
16485;DHT22;8353;47.856;12.344;2023-12-29T11:53:31;13.90;99.90
16485;DHT22;8353;47.856;12.344;2023-12-29T11:56:18;13.90;99.90
16485;DHT22;8353;47.856;12.344;2023-12-29T11:59:19;13.90;99.90
16485;DHT22;8353;47.856;12.344;2023-12-29T12:02:26;14.00;99.90
16485;DHT22;8353;47.856;12.344;2023-12-29T12:05:47;13.90;99.90
16485;DHT22;8353;47.856;12.344;2023-12-29T12:08:35;14.00;99.90
16485;DHT22;8353;47.856;12.344;2023-12-29T12:11:43;14.00;99.90
16485;DHT22;8353;47.856;12.344;2023-12-29T12:14:50;14.00;99.90
16485;DHT22;8353;47.856;12.344;2023-12-29T12:17:37;14.00;99.90
16485;DHT22;8353;47.856;12.344;2023-12-29T12:20:27;14.20;99.90
16485;DHT22;8353;47.856;12.344;2023-12-29T12:23:18;14.20;99.90
16485;DHT22;8353;47.856;12.344;2023-12-29T12:26:06;14.10;99.90
16485;DHT22;8353;47.856;12.344;2023-12-29T12:28:53;14.20;99.90
16485;DHT22;8353;47.856;12.344;2023-12-29T12:31:51;14.40;99.90
16485;DHT22;8353;47.856;12.344;2023-12-29T12:34:39;14.50;99.90
16485;DHT22;8353;47.856;12.344;2023-12-29T12:37:27;14.50;99.90
16485;DHT22;8353;47.856;12.344;2023-12-29T12:40:25;14.50;99.90
16485;DHT22;8353;47.856;12.344;2023-12-29T12:43:14;14.40;99.90
16485;DHT22;8353;47.856;12.344;2023-12-29T12:46:01;14.30;99.90
16485;DHT22;8353;47.856;12.344;2023-12-29T12:48:49;14.10;99.90
16485;DHT22;8353;47.856;12.344;2023-12-29T12:51:36;14.20;99.90
16485;DHT22;8353;47.856;12.344;2023-12-29T12:54:23;14.30;99.90
16485;DHT22;8353;47.856;12.344;2023-12-29T12:57:11;14.40;99.90
16485;DHT22;8353;47.856;12.344;2023-12-29T12:59:59;14.50;99.90
16485;DHT22;8353;47.856;12.344;2023-12-29T13:02:47;14.40;99.90
16485;DHT22;8353;47.856;12.344;2023-12-29T13:05:35;14.40;99.90
16485;DHT22;8353;47.856;12.344;2023-12-29T13:08:23;14.40;99.90
16485;DHT22;8353;47.856;12.344;2023-12-29T13:11:10;14.40;99.90
16485;DHT22;8353;47.856;12.344;2023-12-29T13:13:59;14.50;99.90
16485;DHT22;8353;47.856;12.344;2023-12-29T13:16:47;14.50;99.90
16485;DHT22;8353;47.856;12.344;2023-12-29T13:19:34;14.40;99.90
16485;DHT22;8353;47.856;12.344;2023-12-29T13:22:21;14.50;99.90
16485;DHT22;8353;47.856;12.344;2023-12-29T13:25:10;14.40;99.90
16485;DHT22;8353;47.856;12.344;2023-12-29T13:27:57;14.40;99.90
16485;DHT22;8353;47.856;12.344;2023-12-29T13:30:47;14.30;99.90
16485;DHT22;8353;47.856;12.344;2023-12-29T13:33:40;14.30;99.90
16485;DHT22;8353;47.856;12.344;2023-12-29T13:36:36;14.40;99.90
16485;DHT22;8353;47.856;12.344;2023-12-29T13:39:28;14.40;99.90
16485;DHT22;8353;47.856;12.344;2023-12-29T13:42:17;14.40;99.90
16485;DHT22;8353;47.856;12.344;2023-12-29T13:45:08;14.40;99.90
16485;DHT22;8353;47.856;12.344;2023-12-29T13:47:57;14.30;99.90
16485;DHT22;8353;47.856;12.344;2023-12-29T13:50:45;14.30;99.90
16485;DHT22;8353;47.856;12.344;2023-12-29T13:53:32;14.30;99.90
16485;DHT22;8353;47.856;12.344;2023-12-29T13:56:19;14.30;99.90
16485;DHT22;8353;47.856;12.344;2023-12-29T13:59:06;14.20;99.90
16485;DHT22;8353;47.856;12.344;2023-12-29T14:01:54;14.20;99.90
16485;DHT22;8353;47.856;12.344;2023-12-29T14:04:42;14.30;99.90
16485;DHT22;8353;47.856;12.344;2023-12-29T14:07:28;14.20;99.90
16485;DHT22;8353;47.856;12.344;2023-12-29T14:10:18;14.20;99.90
16485;DHT22;8353;47.856;12.344;2023-12-29T14:13:06;14.30;99.90
16485;DHT22;8353;47.856;12.344;2023-12-29T14:15:53;14.20;99.90
16485;DHT22;8353;47.856;12.344;2023-12-29T14:18:53;14.20;99.90
16485;DHT22;8353;47.856;12.344;2023-12-29T14:21:41;14.10;99.90
16485;DHT22;8353;47.856;12.344;2023-12-29T14:24:31;14.00;99.90
16485;DHT22;8353;47.856;12.344;2023-12-29T14:27:20;14.00;99.90
16485;DHT22;8353;47.856;12.344;2023-12-29T14:30:18;14.00;99.90
16485;DHT22;8353;47.856;12.344;2023-12-29T14:33:05;13.90;99.90
16485;DHT22;8353;47.856;12.344;2023-12-29T14:35:51;14.00;99.90
16485;DHT22;8353;47.856;12.344;2023-12-29T14:38:39;14.00;99.90
16485;DHT22;8353;47.856;12.344;2023-12-29T14:41:26;14.00;99.90
16485;DHT22;8353;47.856;12.344;2023-12-29T14:44:13;14.00;99.90
16485;DHT22;8353;47.856;12.344;2023-12-29T14:47:00;13.90;99.90
16485;DHT22;8353;47.856;12.344;2023-12-29T14:49:47;13.90;99.90
16485;DHT22;8353;47.856;12.344;2023-12-29T14:52:33;13.80;99.90
16485;DHT22;8353;47.856;12.344;2023-12-29T14:55:21;13.80;99.90
16485;DHT22;8353;47.856;12.344;2023-12-29T14:58:10;13.80;99.90
16485;DHT22;8353;47.856;12.344;2023-12-29T15:00:56;13.80;99.90
16485;DHT22;8353;47.856;12.344;2023-12-29T15:03:43;13.80;99.90
16485;DHT22;8353;47.856;12.344;2023-12-29T15:06:30;13.70;99.90
16485;DHT22;8353;47.856;12.344;2023-12-29T15:09:17;13.60;99.90
16485;DHT22;8353;47.856;12.344;2023-12-29T15:12:06;13.60;99.90
16485;DHT22;8353;47.856;12.344;2023-12-29T15:14:52;13.60;99.90
16485;DHT22;8353;47.856;12.344;2023-12-29T15:17:39;13.50;99.90
16485;DHT22;8353;47.856;12.344;2023-12-29T15:20:26;13.40;99.90
16485;DHT22;8353;47.856;12.344;2023-12-29T15:23:13;13.40;99.90
16485;DHT22;8353;47.856;12.344;2023-12-29T15:26:00;13.40;99.90
16485;DHT22;8353;47.856;12.344;2023-12-29T15:28:48;13.30;99.90
16485;DHT22;8353;47.856;12.344;2023-12-29T15:31:35;13.10;99.90
16485;DHT22;8353;47.856;12.344;2023-12-29T15:34:22;13.00;99.90
16485;DHT22;8353;47.856;12.344;2023-12-29T15:37:08;13.00;99.90
16485;DHT22;8353;47.856;12.344;2023-12-29T15:39:55;12.80;99.90
16485;DHT22;8353;47.856;12.344;2023-12-29T15:42:42;12.70;99.90
16485;DHT22;8353;47.856;12.344;2023-12-29T15:45:31;12.70;99.90
16485;DHT22;8353;47.856;12.344;2023-12-29T15:48:18;12.70;99.90
16485;DHT22;8353;47.856;12.344;2023-12-29T15:51:06;12.60;99.90
16485;DHT22;8353;47.856;12.344;2023-12-29T15:53:54;12.60;99.90
16485;DHT22;8353;47.856;12.344;2023-12-29T15:56:41;12.50;99.90
16485;DHT22;8353;47.856;12.344;2023-12-29T15:59:27;12.60;99.90
16485;DHT22;8353;47.856;12.344;2023-12-29T16:02:15;12.50;99.90
16485;DHT22;8353;47.856;12.344;2023-12-29T16:05:03;12.50;99.90
16485;DHT22;8353;47.856;12.344;2023-12-29T16:07:49;12.50;99.90
16485;DHT22;8353;47.856;12.344;2023-12-29T16:10:37;12.50;99.90
16485;DHT22;8353;47.856;12.344;2023-12-29T16:13:23;12.50;99.90
16485;DHT22;8353;47.856;12.344;2023-12-29T16:16:10;12.60;99.90
16485;DHT22;8353;47.856;12.344;2023-12-29T16:18:59;12.60;99.90
16485;DHT22;8353;47.856;12.344;2023-12-29T16:21:46;12.60;99.90
16485;DHT22;8353;47.856;12.344;2023-12-29T16:24:37;12.60;99.90
16485;DHT22;8353;47.856;12.344;2023-12-29T16:27:23;12.50;99.90
16485;DHT22;8353;47.856;12.344;2023-12-29T16:30:11;12.50;99.90
16485;DHT22;8353;47.856;12.344;2023-12-29T16:32:57;12.40;99.90
16485;DHT22;8353;47.856;12.344;2023-12-29T16:35:47;12.30;99.90
16485;DHT22;8353;47.856;12.344;2023-12-29T16:38:36;12.20;99.90
16485;DHT22;8353;47.856;12.344;2023-12-29T16:41:24;12.20;99.90
16485;DHT22;8353;47.856;12.344;2023-12-29T16:44:13;12.20;99.90
16485;DHT22;8353;47.856;12.344;2023-12-29T16:47:00;12.20;99.90
16485;DHT22;8353;47.856;12.344;2023-12-29T16:49:47;12.10;99.90
16485;DHT22;8353;47.856;12.344;2023-12-29T16:52:35;12.00;99.90
16485;DHT22;8353;47.856;12.344;2023-12-29T16:55:22;11.80;99.90
16485;DHT22;8353;47.856;12.344;2023-12-29T16:58:08;11.80;99.90
16485;DHT22;8353;47.856;12.344;2023-12-29T17:00:55;11.80;99.90
16485;DHT22;8353;47.856;12.344;2023-12-29T17:03:42;11.80;99.90
16485;DHT22;8353;47.856;12.344;2023-12-29T17:06:29;11.70;99.90
16485;DHT22;8353;47.856;12.344;2023-12-29T17:09:17;11.70;99.90
16485;DHT22;8353;47.856;12.344;2023-12-29T17:12:04;11.60;99.90
16485;DHT22;8353;47.856;12.344;2023-12-29T17:14:51;11.50;99.90
16485;DHT22;8353;47.856;12.344;2023-12-29T17:17:38;11.40;99.90
16485;DHT22;8353;47.856;12.344;2023-12-29T17:20:25;11.40;99.90
16485;DHT22;8353;47.856;12.344;2023-12-29T17:23:12;11.30;99.90
16485;DHT22;8353;47.856;12.344;2023-12-29T17:26:01;11.10;99.90
16485;DHT22;8353;47.856;12.344;2023-12-29T17:28:48;11.10;99.90
16485;DHT22;8353;47.856;12.344;2023-12-29T17:31:39;11.00;99.90
16485;DHT22;8353;47.856;12.344;2023-12-29T17:34:26;11.00;99.90
16485;DHT22;8353;47.856;12.344;2023-12-29T17:37:13;11.00;99.90
16485;DHT22;8353;47.856;12.344;2023-12-29T17:39:59;11.00;99.90
16485;DHT22;8353;47.856;12.344;2023-12-29T17:42:47;10.90;99.90
16485;DHT22;8353;47.856;12.344;2023-12-29T17:45:34;10.90;99.90
16485;DHT22;8353;47.856;12.344;2023-12-29T17:48:21;10.90;99.90
16485;DHT22;8353;47.856;12.344;2023-12-29T17:51:08;10.70;99.90